LTBU/TEQ METAR and TAF weather

Enter ICAO airport designator
Station Type Date Time Source
LTBU METAR 2019/02/16 02:50 UTC NOAA

LTBU 160250Z 01010KT 9999 BKN030 05/M01 Q1026


Station Type Date Time Source
LTBU Decoded METAR 2019/02/16 02:50 UTC NOAA

Corlu, Turkey (LTBU) 41-08N 027-55E
Feb 15, 2019 - 09:50 PM EST / 2019.02.16 0250 UTC
Wind: from the N (010 degrees) at 12 MPH (10 KT):0
Visibility: greater than 7 mile(s):0
Sky conditions: mostly cloudy
Temperature: 41 F (5 C)
Dew Point: 30 F (-1 C)
Relative Humidity: 65%
Pressure (altimeter): 30.30 in. Hg (1026 hPa)
ob: LTBU 160250Z 01010KT 9999 BKN030 05/M01 Q1026
cycle: 3

Station Type Date Time Source
LTBU TAF 2019/02/15 18:03 UTC NOAA

TAF LTBU 151640Z 1518/1618 01022KT 9999 BKN030
TEMPO 1518/1522 -RA SCT012 BKN025
BECMG 1602/1605 02012KT
TEMPO 1608/1612 01015G25KT -SHRA


Example: see airport list